createdAt,value
2022-10-20T00:01:02.331Z,4.60
2022-10-20T00:03:29.098Z,5.43
2022-10-20T00:05:55.705Z,7.18
2022-10-20T00:08:22.215Z,9.95
2022-10-20T00:10:55.050Z,2.15
2022-10-20T00:13:21.650Z,8.75
2022-10-20T00:15:49.192Z,4.82
2022-10-20T00:18:15.825Z,17.77
2022-10-20T00:20:42.484Z,9.98
2022-10-20T00:23:08.965Z,7.32
2022-10-20T00:25:35.639Z,10.50
2022-10-20T00:28:02.112Z,10.27
2022-10-20T00:30:28.640Z,7.50
2022-10-20T00:32:55.184Z,5.20
2022-10-20T00:35:21.693Z,5.97
2022-10-20T00:37:48.192Z,4.35
2022-10-20T00:40:14.862Z,2.88
2022-10-20T00:42:45.304Z,4.93
2022-10-20T00:45:16.427Z,4.05
2022-10-20T00:47:51.143Z,8.15
2022-10-20T00:50:21.550Z,5.97
2022-10-20T00:52:48.638Z,11.00
2022-10-20T00:55:17.426Z,8.70
2022-10-20T00:57:45.851Z,4.97
2022-10-20T01:00:12.615Z,5.93
2022-10-20T01:02:39.274Z,10.50
2022-10-20T01:05:06.210Z,11.43
2022-10-20T01:07:32.794Z,8.38
2022-10-20T01:09:59.402Z,10.10
2022-10-20T01:12:36.815Z,12.95
2022-10-20T01:15:07.845Z,8.48
2022-10-20T01:17:37.841Z,6.40
2022-10-20T01:20:07.676Z,5.55
2022-10-20T01:22:54.468Z,7.43
2022-10-20T01:25:39.473Z,9.15
2022-10-20T01:28:12.577Z,6.78
2022-10-20T01:30:44.515Z,11.88
2022-10-20T01:33:11.030Z,14.30
2022-10-20T01:35:37.523Z,6.45
2022-10-20T01:38:08.071Z,4.47
2022-10-20T01:40:53.187Z,4.22
2022-10-20T01:43:21.326Z,4.55
2022-10-20T01:45:49.406Z,7.70
2022-10-20T01:48:17.893Z,5.75
2022-10-20T01:50:46.095Z,7.35
2022-10-20T01:53:13.492Z,5.75
2022-10-20T01:55:40.428Z,7.35
2022-10-20T01:58:07.011Z,5.72
2022-10-20T02:00:35.464Z,11.70
2022-10-20T02:03:07.682Z,17.65
2022-10-20T02:05:37.326Z,8.48
2022-10-20T02:08:12.317Z,11.02
2022-10-20T02:10:45.000Z,7.57
2022-10-20T02:13:12.580Z,8.57
2022-10-20T02:15:40.930Z,6.13
2022-10-20T02:18:09.350Z,8.55
2022-10-20T02:20:35.824Z,5.47
2022-10-20T02:23:04.580Z,11.23
2022-10-20T02:25:32.497Z,4.13
2022-10-20T02:30:26.128Z,15.55
2022-10-20T02:32:53.070Z,10.63
2022-10-20T02:35:26.236Z,7.15
2022-10-20T02:37:52.686Z,6.15
2022-10-20T02:40:19.281Z,16.48
2022-10-20T02:42:45.795Z,7.47
2022-10-20T02:45:12.287Z,9.95
2022-10-20T02:47:39.207Z,10.20
2022-10-20T02:50:06.320Z,9.95
2022-10-20T02:52:32.969Z,7.72
2022-10-20T02:54:59.453Z,8.55
2022-10-20T02:57:26.567Z,5.85
2022-10-20T02:59:53.076Z,7.20
2022-10-20T03:02:19.550Z,6.72
2022-10-20T03:04:46.219Z,7.30
2022-10-20T03:07:13.701Z,8.23
2022-10-20T03:09:40.476Z,5.60
2022-10-20T03:12:06.974Z,9.60
2022-10-20T03:14:33.420Z,7.53
2022-10-20T03:16:59.927Z,6.05
2022-10-20T03:19:26.924Z,9.90
2022-10-20T03:21:53.372Z,14.27
2022-10-20T03:24:19.844Z,10.40
2022-10-20T03:26:46.283Z,6.32
2022-10-20T03:29:12.767Z,10.77
2022-10-20T03:31:39.332Z,11.63
2022-10-20T03:34:05.940Z,12.27
2022-10-20T03:36:32.456Z,11.30
2022-10-20T03:38:58.923Z,11.90
2022-10-20T03:41:25.426Z,7.30
2022-10-20T03:43:51.873Z,8.20
2022-10-20T03:46:18.354Z,6.03
2022-10-20T03:48:45.140Z,7.47
2022-10-20T03:51:13.301Z,9.90
2022-10-20T03:53:39.958Z,7.85
2022-10-20T03:56:07.295Z,8.38
2022-10-20T03:58:33.935Z,7.82
2022-10-20T04:01:00.569Z,12.73
2022-10-20T04:03:27.141Z,13.35
2022-10-20T04:05:53.676Z,7.10
2022-10-20T04:08:20.156Z,7.60
2022-10-20T04:10:46.589Z,9.77
2022-10-20T04:13:13.048Z,5.28
2022-10-20T04:15:39.491Z,7.97
2022-10-20T04:18:05.989Z,11.25
2022-10-20T04:20:32.436Z,6.93
2022-10-20T04:22:58.908Z,10.23
2022-10-20T04:25:25.399Z,12.20
2022-10-20T04:27:51.934Z,8.07
2022-10-20T04:30:18.402Z,8.95
2022-10-20T04:32:44.983Z,5.97
2022-10-20T04:35:11.510Z,12.68
2022-10-20T04:37:38.284Z,6.15
2022-10-20T04:40:05.321Z,5.25
2022-10-20T04:42:32.083Z,7.05
2022-10-20T04:44:58.848Z,8.38
2022-10-20T04:47:25.395Z,7.90
2022-10-20T04:49:51.832Z,7.93
2022-10-20T04:52:20.748Z,5.25
2022-10-20T04:54:47.214Z,11.02
2022-10-20T04:57:13.670Z,10.32
2022-10-20T04:59:40.179Z,11.57
2022-10-20T05:02:06.845Z,7.78
2022-10-20T05:04:33.383Z,9.48
2022-10-20T05:06:59.853Z,11.43
2022-10-20T05:09:26.313Z,12.80
2022-10-20T05:11:53.666Z,12.15
2022-10-20T05:14:20.301Z,9.13
2022-10-20T05:16:46.759Z,6.35
2022-10-20T05:19:13.231Z,12.57
2022-10-20T05:24:06.403Z,9.95
2022-10-20T05:26:35.884Z,8.57
2022-10-20T05:29:03.663Z,7.05
2022-10-20T05:31:30.111Z,9.43
2022-10-20T05:33:56.968Z,15.65
2022-10-20T05:36:25.064Z,8.65
2022-10-20T05:38:54.984Z,11.77
2022-10-20T05:41:22.863Z,12.00
2022-10-20T05:43:50.118Z,7.13
2022-10-20T05:46:16.751Z,7.85
2022-10-20T05:48:43.373Z,10.65
2022-10-20T05:51:13.812Z,13.23
2022-10-20T05:53:41.762Z,10.70
2022-10-20T05:56:09.218Z,10.48
2022-10-20T05:58:35.975Z,9.85
2022-10-20T06:01:17.171Z,8.68
2022-10-20T06:03:47.422Z,9.40
2022-10-20T06:06:13.863Z,15.13
2022-10-20T06:08:40.373Z,13.30
2022-10-20T06:11:08.431Z,8.15
2022-10-20T06:13:35.035Z,22.67
2022-10-20T06:16:05.359Z,11.82
2022-10-20T06:18:32.880Z,16.45
2022-10-20T06:21:00.294Z,8.27
2022-10-20T06:23:26.754Z,11.07
2022-10-20T06:25:53.235Z,8.77
2022-10-20T06:28:19.720Z,13.63
2022-10-20T06:30:46.332Z,10.07
2022-10-20T06:33:14.957Z,11.73
2022-10-20T06:35:41.424Z,11.20
2022-10-20T06:38:07.895Z,12.40
2022-10-20T06:40:34.384Z,13.43
2022-10-20T06:43:00.856Z,14.32
2022-10-20T06:45:27.335Z,7.95
2022-10-20T06:47:53.787Z,10.05
2022-10-20T06:50:20.260Z,9.75
2022-10-20T06:52:46.690Z,11.43
2022-10-20T06:55:13.211Z,9.90
2022-10-20T06:57:39.701Z,12.27
2022-10-20T07:00:06.560Z,13.18
2022-10-20T07:02:33.036Z,15.27
2022-10-20T07:04:59.480Z,15.77
2022-10-20T07:07:26.097Z,14.80
2022-10-20T07:09:52.590Z,12.95
2022-10-20T07:12:19.136Z,13.48
2022-10-20T07:14:45.594Z,9.90
2022-10-20T07:17:12.069Z,15.70
2022-10-20T07:19:38.507Z,13.90
2022-10-20T07:22:05.121Z,10.05
2022-10-20T07:24:31.639Z,7.82
2022-10-20T07:26:58.129Z,16.65
2022-10-20T07:29:24.645Z,10.88
2022-10-20T07:31:51.191Z,15.80
2022-10-20T07:34:27.183Z,14.77
2022-10-20T07:36:54.615Z,14.38
2022-10-20T07:39:21.091Z,14.27
2022-10-20T07:41:48.350Z,12.93
2022-10-20T07:44:15.153Z,11.07
2022-10-20T07:46:41.589Z,11.77
2022-10-20T07:51:54.716Z,13.02
2022-10-20T07:54:21.201Z,12.60
2022-10-20T07:56:47.887Z,15.05
2022-10-20T07:59:14.561Z,15.32
2022-10-20T08:01:41.921Z,16.30
2022-10-20T08:04:08.466Z,13.35
2022-10-20T08:06:34.965Z,15.35
2022-10-20T08:09:01.516Z,14.70
2022-10-20T08:11:28.060Z,14.35
2022-10-20T08:13:54.587Z,12.73
2022-10-20T08:16:30.930Z,15.93
2022-10-20T08:19:08.278Z,11.43
2022-10-20T08:21:34.866Z,13.48
2022-10-20T08:24:02.849Z,12.98
2022-10-20T08:26:29.475Z,15.60
2022-10-20T08:28:56.188Z,13.02
2022-10-20T08:31:23.296Z,20.48
2022-10-20T08:33:52.565Z,17.77
2022-10-20T08:36:20.100Z,14.73
2022-10-20T08:38:46.566Z,15.90
2022-10-20T08:41:15.985Z,17.52
2022-10-20T08:43:42.828Z,17.65
2022-10-20T08:48:48.487Z,15.15
2022-10-20T08:51:22.701Z,19.13
2022-10-20T08:53:50.751Z,13.90
2022-10-20T08:56:17.301Z,16.35
2022-10-20T08:58:45.002Z,12.18
2022-10-20T09:01:18.665Z,13.45
2022-10-20T09:03:45.333Z,14.70
2022-10-20T09:06:16.246Z,9.85
2022-10-20T09:08:43.240Z,16.15
2022-10-20T09:11:14.095Z,15.85
2022-10-20T09:13:40.586Z,13.15
2022-10-20T09:16:41.801Z,14.73
2022-10-20T09:19:16.438Z,13.00
2022-10-20T09:21:45.048Z,18.17
2022-10-20T09:24:11.813Z,13.32
2022-10-20T09:26:57.487Z,13.80
2022-10-20T09:29:34.507Z,10.45
2022-10-20T09:32:11.421Z,11.48
2022-10-20T09:34:47.580Z,16.95
2022-10-20T09:37:16.122Z,16.90
2022-10-20T09:39:42.541Z,13.10
2022-10-20T09:42:18.672Z,9.07
2022-10-20T09:44:48.751Z,15.70
2022-10-20T09:47:15.989Z,24.73
2022-10-20T09:49:44.667Z,13.10
2022-10-20T09:52:18.756Z,13.52
2022-10-20T09:54:48.697Z,13.23
2022-10-20T09:57:17.933Z,18.05
2022-10-20T09:59:46.354Z,14.40
2022-10-20T10:02:15.783Z,13.93
2022-10-20T10:04:43.504Z,17.25
2022-10-20T10:07:22.185Z,12.57
2022-10-20T10:09:57.908Z,13.38
2022-10-20T10:12:25.433Z,11.65
2022-10-20T10:14:53.402Z,12.77
2022-10-20T10:17:33.054Z,11.82
2022-10-20T10:20:00.256Z,10.52
2022-10-20T10:22:26.935Z,10.98
2022-10-20T10:24:55.001Z,14.80
2022-10-20T10:27:21.494Z,10.13
2022-10-20T10:29:48.194Z,14.63
2022-10-20T10:32:19.003Z,21.25
2022-10-20T10:35:00.687Z,12.48
2022-10-20T10:37:29.733Z,10.57
2022-10-20T10:39:58.862Z,16.27
2022-10-20T10:42:44.191Z,17.35
2022-10-20T10:45:13.707Z,13.90
2022-10-20T10:47:48.944Z,11.65
2022-10-20T10:50:24.968Z,16.60
2022-10-20T10:53:05.770Z,14.93
2022-10-20T10:55:48.382Z,12.55
2022-10-20T10:58:21.828Z,17.30
2022-10-20T11:00:54.555Z,15.90
2022-10-20T11:03:21.047Z,13.70
2022-10-20T11:06:02.138Z,12.13
2022-10-20T11:08:47.583Z,16.73
2022-10-20T11:11:34.418Z,17.73
2022-10-20T11:14:16.192Z,14.85
2022-10-20T11:16:45.656Z,11.45
2022-10-20T11:19:12.158Z,11.15
2022-10-20T11:21:53.933Z,17.10
2022-10-20T11:24:39.322Z,11.10
2022-10-20T11:27:14.351Z,17.92
2022-10-20T11:29:43.082Z,11.07
2022-10-20T11:32:28.770Z,10.75
2022-10-20T11:35:01.470Z,14.57
2022-10-20T11:37:29.265Z,14.52
2022-10-20T11:40:07.611Z,17.30
2022-10-20T11:42:54.090Z,14.38
2022-10-20T11:45:39.266Z,10.30
2022-10-20T11:48:20.370Z,13.00
2022-10-20T11:50:58.335Z,13.18
2022-10-20T11:53:24.794Z,11.02
2022-10-20T11:56:00.567Z,13.13
2022-10-20T11:58:32.447Z,19.77
2022-10-20T12:01:03.606Z,9.73
2022-10-20T12:03:49.059Z,14.60
2022-10-20T12:06:15.492Z,15.23
2022-10-20T12:09:01.084Z,12.30
2022-10-20T12:11:46.184Z,10.88
2022-10-20T12:14:15.754Z,11.90
2022-10-20T12:16:54.604Z,14.70
2022-10-20T12:19:27.526Z,22.63
2022-10-20T12:21:54.010Z,14.80
2022-10-20T12:24:31.174Z,12.88
2022-10-20T12:27:03.629Z,15.48
2022-10-20T12:29:33.164Z,17.63
2022-10-20T12:32:21.563Z,13.57
2022-10-20T12:34:48.741Z,21.23
2022-10-20T12:37:17.297Z,11.27
2022-10-20T12:39:44.512Z,12.98
2022-10-20T12:42:23.364Z,21.67
2022-10-20T12:44:50.280Z,11.63
2022-10-20T12:47:27.954Z,12.60
2022-10-20T12:50:00.714Z,12.82
2022-10-20T12:52:28.416Z,18.80
2022-10-20T12:54:57.379Z,19.52
2022-10-20T12:57:23.855Z,11.52
2022-10-20T12:59:50.355Z,13.73
2022-10-20T13:02:16.813Z,12.13
2022-10-20T13:05:01.651Z,11.48
2022-10-20T13:08:04.847Z,12.23
2022-10-20T13:10:32.872Z,15.88
2022-10-20T13:13:02.510Z,15.95
2022-10-20T13:15:37.958Z,16.75
2022-10-20T13:18:13.707Z,16.95
2022-10-20T13:20:46.240Z,16.90
2022-10-20T13:23:14.030Z,15.75
2022-10-20T13:25:45.172Z,10.77
2022-10-20T13:28:14.804Z,13.18
2022-10-20T13:31:01.508Z,12.90
2022-10-20T13:33:44.590Z,14.77
2022-10-20T13:36:17.636Z,14.40
2022-10-20T13:38:58.758Z,16.50
2022-10-20T13:41:27.973Z,10.13
2022-10-20T13:44:04.523Z,11.60
2022-10-20T13:46:37.834Z,11.40
2022-10-20T13:49:18.430Z,19.15
2022-10-20T13:51:49.287Z,15.93
2022-10-20T13:54:22.777Z,15.20
2022-10-20T13:56:49.764Z,11.80
2022-10-20T13:59:19.311Z,11.50
2022-10-20T14:01:47.674Z,13.80
2022-10-20T14:04:34.023Z,10.35
2022-10-20T14:07:05.075Z,12.18
2022-10-20T14:09:31.607Z,14.63
2022-10-20T14:12:03.553Z,14.85
2022-10-20T14:14:30.881Z,13.00
2022-10-20T14:17:05.590Z,14.30
2022-10-20T14:19:33.677Z,15.98
2022-10-20T14:22:10.957Z,13.90
2022-10-20T14:24:40.221Z,19.85
2022-10-20T14:27:13.515Z,15.23
2022-10-20T14:29:40.416Z,16.33
2022-10-20T14:32:07.057Z,10.40
2022-10-20T14:34:35.264Z,15.93
2022-10-20T14:37:02.208Z,13.70
2022-10-20T14:39:39.295Z,14.05
2022-10-20T14:42:26.034Z,8.35
2022-10-20T14:44:53.867Z,14.25
2022-10-20T14:47:20.904Z,14.02
2022-10-20T14:49:51.640Z,18.55
2022-10-20T14:52:21.301Z,17.88
2022-10-20T14:54:49.215Z,13.27
2022-10-20T14:57:15.705Z,13.13
2022-10-20T15:00:06.167Z,11.60
2022-10-20T15:02:34.670Z,16.95
2022-10-20T15:05:19.926Z,14.48
2022-10-20T15:07:46.425Z,11.82
2022-10-20T15:10:15.415Z,13.82
2022-10-20T15:12:43.151Z,14.55
2022-10-20T15:15:12.682Z,15.23
2022-10-20T15:17:44.409Z,18.27
2022-10-20T15:20:29.431Z,18.55
2022-10-20T15:22:56.448Z,10.82
2022-10-20T15:25:23.485Z,22.60
2022-10-20T15:27:50.016Z,13.88
2022-10-20T15:30:17.562Z,11.13
2022-10-20T15:32:44.098Z,16.70
2022-10-20T15:35:16.575Z,15.02
2022-10-20T15:37:43.320Z,23.20
2022-10-20T15:40:10.015Z,18.08
2022-10-20T15:42:36.539Z,12.88
2022-10-20T15:45:10.798Z,18.23
2022-10-20T15:47:37.272Z,21.30
2022-10-20T15:50:03.880Z,21.83
2022-10-20T15:52:30.353Z,22.42
2022-10-20T15:54:56.866Z,15.30
2022-10-20T15:57:23.377Z,12.38
2022-10-20T15:59:49.869Z,15.70
2022-10-20T16:02:16.457Z,12.80
2022-10-20T16:04:42.938Z,16.65
2022-10-20T16:07:09.387Z,14.55
2022-10-20T16:09:35.879Z,18.90
2022-10-20T16:12:02.404Z,13.93
2022-10-20T16:14:28.933Z,14.18
2022-10-20T16:16:55.440Z,12.48
2022-10-20T16:19:21.979Z,14.43
2022-10-20T16:21:48.401Z,20.83
2022-10-20T16:24:14.877Z,19.77
2022-10-20T16:26:41.374Z,15.32
2022-10-20T16:29:07.824Z,16.25
2022-10-20T16:31:34.337Z,11.70
2022-10-20T16:34:00.834Z,21.98
2022-10-20T16:36:27.391Z,10.88
2022-10-20T16:38:57.359Z,21.60
2022-10-20T16:41:23.952Z,13.27
2022-10-20T16:43:50.432Z,9.98
2022-10-20T16:46:16.985Z,17.15
2022-10-20T16:48:47.493Z,14.40
2022-10-20T16:51:15.871Z,15.15
2022-10-20T16:53:42.734Z,17.10
2022-10-20T16:56:09.483Z,18.23
2022-10-20T16:58:36.107Z,21.25
2022-10-20T17:01:06.346Z,17.30
2022-10-20T17:03:33.123Z,13.95
2022-10-20T17:06:01.389Z,16.13
2022-10-20T17:08:32.090Z,18.85
2022-10-20T17:11:00.282Z,18.38
2022-10-20T17:13:27.210Z,18.38
2022-10-20T17:15:53.787Z,15.27
2022-10-20T17:18:20.606Z,21.17
2022-10-20T17:20:47.189Z,15.50
2022-10-20T17:23:13.908Z,17.42
2022-10-20T17:25:40.535Z,18.25
2022-10-20T17:28:07.078Z,15.38
2022-10-20T17:30:33.579Z,11.50
2022-10-20T17:33:00.154Z,13.00
2022-10-20T17:35:28.386Z,17.45
2022-10-20T17:37:54.921Z,17.92
2022-10-20T17:40:22.316Z,17.33
2022-10-20T17:42:49.064Z,17.90
2022-10-20T17:45:15.580Z,16.60
2022-10-20T17:47:42.093Z,19.77
2022-10-20T17:52:35.606Z,17.25
2022-10-20T17:55:02.299Z,11.57
2022-10-20T17:57:32.101Z,16.08
2022-10-20T17:59:59.516Z,16.70
2022-10-20T18:02:29.256Z,16.15
2022-10-20T18:04:55.747Z,16.17
2022-10-20T18:07:22.267Z,21.00
2022-10-20T18:09:48.757Z,21.38
2022-10-20T18:12:15.246Z,14.15
2022-10-20T18:14:41.800Z,14.00
2022-10-20T18:17:08.430Z,18.08
2022-10-20T18:19:34.895Z,15.70
2022-10-20T18:22:01.545Z,16.13
2022-10-20T18:24:28.023Z,13.07
2022-10-20T18:26:54.492Z,19.45
2022-10-20T18:29:21.165Z,14.93
2022-10-20T18:31:47.967Z,13.82
2022-10-20T18:34:17.209Z,13.90
2022-10-20T18:36:46.115Z,21.92
2022-10-20T18:39:13.310Z,121.05
2022-10-20T18:41:40.645Z,277.30
2022-10-20T18:44:10.280Z,652.30
2022-10-20T18:46:37.217Z,604.15
2022-10-20T18:49:05.323Z,509.98
2022-10-20T18:51:32.212Z,453.05
2022-10-20T18:53:59.699Z,226.50
2022-10-20T18:56:27.199Z,96.75
2022-10-20T18:58:57.839Z,138.00
2022-10-20T19:01:25.746Z,71.75
2022-10-20T19:03:53.318Z,41.72
2022-10-20T19:06:22.818Z,43.72
2022-10-20T19:08:54.222Z,34.20
2022-10-20T19:11:22.048Z,43.75
2022-10-20T19:13:48.664Z,41.65
2022-10-20T19:16:16.293Z,34.03
2022-10-20T19:18:46.776Z,36.65
2022-10-20T19:21:13.598Z,41.65
2022-10-20T19:23:42.434Z,24.77
2022-10-20T19:26:13.879Z,21.90
2022-10-20T19:28:41.864Z,22.83
2022-10-20T19:31:20.653Z,18.52
2022-10-20T19:33:48.774Z,20.13
2022-10-20T19:36:15.250Z,19.63
2022-10-20T19:38:41.824Z,23.85
2022-10-20T19:41:08.357Z,24.13
2022-10-20T19:43:35.474Z,23.65
2022-10-20T19:46:02.561Z,19.60
2022-10-20T19:48:29.076Z,24.00
2022-10-20T19:50:55.712Z,19.17
2022-10-20T19:53:25.229Z,20.98
2022-10-20T19:55:52.478Z,16.48
2022-10-20T19:58:20.408Z,21.00
2022-10-20T20:00:48.843Z,17.52
2022-10-20T20:03:15.648Z,14.57
2022-10-20T20:05:42.209Z,17.50
2022-10-20T20:08:09.043Z,19.73
2022-10-20T20:10:35.805Z,64.30
2022-10-20T20:13:02.525Z,90.88
2022-10-20T20:15:29.112Z,52.15
2022-10-20T20:17:55.668Z,30.33
2022-10-20T20:20:22.335Z,24.27
2022-10-20T20:22:48.841Z,27.83
2022-10-20T20:25:15.380Z,22.83
2022-10-20T20:27:42.980Z,19.60
2022-10-20T20:30:09.822Z,21.48
2022-10-20T20:32:39.319Z,17.65
2022-10-20T20:35:06.985Z,27.38
2022-10-20T20:37:33.850Z,21.55
2022-10-20T20:40:00.384Z,28.23
2022-10-20T20:42:26.871Z,18.42
2022-10-20T20:44:53.509Z,21.15
2022-10-20T20:47:20.009Z,24.67
2022-10-20T20:49:46.450Z,26.33
2022-10-20T20:52:12.956Z,20.60
2022-10-20T20:54:39.400Z,25.50
2022-10-20T20:57:05.848Z,19.17
2022-10-20T20:59:32.324Z,18.10
2022-10-20T21:01:58.781Z,27.48
2022-10-20T21:04:28.318Z,31.48
2022-10-20T21:07:02.160Z,16.83
2022-10-20T21:09:29.187Z,27.77
2022-10-20T21:11:55.853Z,19.38
2022-10-20T21:14:22.378Z,26.70
2022-10-20T21:16:48.852Z,28.25
2022-10-20T21:19:15.349Z,14.98
2022-10-20T21:21:57.473Z,22.95
2022-10-20T21:24:24.898Z,23.73
2022-10-20T21:26:51.610Z,18.60
2022-10-20T21:29:18.132Z,23.30
2022-10-20T21:31:44.605Z,25.13
2022-10-20T21:34:11.546Z,18.13
2022-10-20T21:36:38.708Z,25.05
2022-10-20T21:39:06.347Z,17.90
2022-10-20T21:41:34.357Z,18.75
2022-10-20T21:44:01.651Z,27.33
2022-10-20T21:46:32.575Z,27.58
2022-10-20T21:49:00.515Z,21.15
2022-10-20T21:51:28.394Z,29.92
2022-10-20T21:53:58.899Z,18.48
2022-10-20T21:56:25.724Z,21.77
2022-10-20T21:58:52.749Z,21.98
2022-10-20T22:01:20.652Z,24.42
2022-10-20T22:03:48.276Z,13.55
2022-10-20T22:06:15.807Z,31.67
2022-10-20T22:08:44.116Z,18.60
2022-10-20T22:11:12.267Z,16.92
2022-10-20T22:13:38.795Z,20.08
2022-10-20T22:16:06.616Z,21.15
2022-10-20T22:18:33.124Z,22.30
2022-10-20T22:21:04.174Z,29.77
2022-10-20T22:23:30.632Z,20.00
2022-10-20T22:25:57.143Z,28.20
2022-10-20T22:28:23.633Z,19.83
2022-10-20T22:30:50.136Z,19.67
2022-10-20T22:33:16.710Z,26.73
2022-10-20T22:35:43.256Z,24.90
2022-10-20T22:38:10.022Z,19.65
2022-10-20T22:40:36.483Z,19.77
2022-10-20T22:43:02.973Z,18.25
2022-10-20T22:45:29.689Z,19.92
2022-10-20T22:47:56.246Z,24.80
2022-10-20T22:50:22.776Z,32.10
2022-10-20T22:52:49.572Z,21.45
2022-10-20T22:55:16.195Z,24.17
2022-10-20T22:57:42.736Z,26.30
2022-10-20T23:00:09.591Z,14.68
2022-10-20T23:02:36.376Z,32.05
2022-10-20T23:05:03.174Z,21.92
2022-10-20T23:07:29.652Z,22.83
2022-10-20T23:09:56.176Z,25.65
2022-10-20T23:12:22.668Z,36.42
2022-10-20T23:14:49.138Z,22.02
2022-10-20T23:17:15.578Z,32.47
2022-10-20T23:19:42.126Z,22.23
2022-10-20T23:22:08.648Z,25.77
2022-10-20T23:24:35.126Z,27.90
2022-10-20T23:27:01.632Z,34.53
2022-10-20T23:29:28.093Z,29.23
2022-10-20T23:31:54.645Z,25.35
2022-10-20T23:34:21.268Z,28.60
2022-10-20T23:36:47.929Z,21.20
2022-10-20T23:39:14.537Z,25.88
2022-10-20T23:41:41.077Z,29.58
2022-10-20T23:44:07.574Z,32.90
2022-10-20T23:46:34.963Z,28.73
2022-10-20T23:49:02.220Z,30.20
2022-10-20T23:51:28.913Z,27.33
2022-10-20T23:53:55.425Z,23.20
2022-10-20T23:56:21.953Z,27.08
2022-10-20T23:58:48.409Z,32.47
